Time;durP1;ratioP1;P1;durP2;ratioP2;P2;SDS_P1;SDS_P2;PMS_P1;PMS_P2;Temp;Humidity;BMP_temperature;BMP_pressure;BME280_temperature;BME280_humidity;BME280_pressure;Samples;Min_cycle;Max_cycle;Signal;HPM_P1;HPM_P2
2023/11/22 00:00:03;;;;;;;34.88;15.18;;;;;;;7.47;74.83;93204.22;4870915;29;20070;-89
2023/11/22 00:02:29;;;;;;;30.30;13.13;;;;;;;7.45;75.27;93212.50;4870451;29;20059;-91
2023/11/22 00:04:55;;;;;;;39.90;15.68;;;;;;;7.48;75.43;93213.75;4872209;29;20021;-91
2023/11/22 00:07:21;;;;;;;32.53;13.75;;;;;;;7.52;75.64;93209.41;4870927;29;20025;-91
2023/11/22 00:09:47;;;;;;;28.70;13.45;;;;;;;7.53;75.78;93192.38;4872315;29;20073;-92
2023/11/22 00:12:13;;;;;;;33.88;14.15;;;;;;;7.58;75.45;93192.25;4872069;29;20113;-91
2023/11/22 00:14:39;;;;;;;31.88;12.18;;;;;;;7.60;75.42;93184.78;4872043;29;20029;-92
2023/11/22 00:17:04;;;;;;;26.42;12.70;;;;;;;7.63;75.37;93192.09;4871125;29;20036;-92
2023/11/22 00:19:30;;;;;;;28.90;12.32;;;;;;;7.68;75.14;93191.19;4871902;29;20029;-91
2023/11/22 00:21:56;;;;;;;30.90;11.90;;;;;;;7.69;75.32;93190.84;4871643;29;20025;-91
2023/11/22 00:24:21;;;;;;;25.75;11.75;;;;;;;7.65;75.03;93187.25;4871637;29;20052;-90
2023/11/22 00:26:47;;;;;;;28.98;10.90;;;;;;;7.59;75.24;93184.00;4871084;29;20025;-91
2023/11/22 00:29:12;;;;;;;26.00;12.02;;;;;;;7.62;74.92;93206.47;4870346;29;20053;-89
2023/11/22 00:31:38;;;;;;;29.00;10.82;;;;;;;7.64;75.21;93194.44;4870749;29;20040;-91
2023/11/22 00:34:03;;;;;;;30.95;12.10;;;;;;;7.66;75.09;93194.13;4872076;29;20228;-92
2023/11/22 00:36:29;;;;;;;26.33;10.88;;;;;;;7.66;74.85;93196.78;4870687;29;20040;-92
2023/11/22 00:38:54;;;;;;;26.50;10.73;;;;;;;7.62;74.97;93187.88;4871246;29;20045;-92
2023/11/22 00:41:20;;;;;;;25.52;11.32;;;;;;;7.64;74.89;93205.03;4871881;29;20034;-92
2023/11/22 00:43:46;;;;;;;22.60;11.43;;;;;;;7.61;74.96;93200.38;4871786;29;20104;-91
2023/11/22 00:46:14;;;;;;;24.33;9.98;;;;;;;7.65;74.78;93203.16;4871630;29;20041;-91
2023/11/22 00:48:40;;;;;;;24.13;9.80;;;;;;;7.61;74.98;93196.91;4871366;29;20105;-92
2023/11/22 00:51:08;;;;;;;23.30;11.60;;;;;;;7.63;74.72;93192.09;4870344;29;20091;-91
2023/11/22 00:53:37;;;;;;;25.88;11.40;;;;;;;7.68;74.63;93196.47;4871570;29;20054;-91
2023/11/22 00:56:06;;;;;;;22.15;10.80;;;;;;;7.68;74.86;93193.84;4870505;29;20033;-90
2023/11/22 00:58:32;;;;;;;19.60;10.23;;;;;;;7.55;74.86;93184.91;4871168;29;20076;-89
2023/11/22 01:00:57;;;;;;;19.80;10.20;;;;;;;7.53;75.25;93192.38;4875302;29;20037;-87
2023/11/22 01:03:23;;;;;;;20.85;10.82;;;;;;;7.52;75.16;93191.63;4876219;29;20318;-89
2023/11/22 01:05:48;;;;;;;17.10;9.63;;;;;;;7.52;75.06;93196.16;4875751;29;20074;-89
2023/11/22 01:08:14;;;;;;;28.63;11.35;;;;;;;7.53;75.25;93184.44;4875175;29;20315;-89
2023/11/22 01:10:40;;;;;;;22.55;10.77;;;;;;;7.57;75.06;93188.03;4875074;29;20052;-90
2023/11/22 01:13:05;;;;;;;18.63;10.00;;;;;;;7.61;74.84;93181.81;4874798;29;20030;-87
2023/11/22 01:15:31;;;;;;;25.70;11.25;;;;;;;7.67;74.70;93171.03;4873696;29;20047;-89
2023/11/22 01:17:57;;;;;;;19.50;9.38;;;;;;;7.69;75.13;93172.28;4874863;29;20074;-90
2023/11/22 01:20:23;;;;;;;21.45;11.00;;;;;;;7.67;74.74;93168.38;4874662;29;20033;-90
2023/11/22 01:22:49;;;;;;;20.52;10.65;;;;;;;7.68;74.76;93162.78;4874246;29;20031;-90
2023/11/22 01:25:14;;;;;;;23.65;10.40;;;;;;;7.75;74.43;93157.78;4874452;29;20319;-90
2023/11/22 01:27:39;;;;;;;28.60;10.80;;;;;;;7.75;74.46;93165.72;4874631;29;20037;-90
2023/11/22 01:30:09;;;;;;;20.48;9.25;;;;;;;7.72;74.84;93171.66;4874157;29;20021;-89
2023/11/22 01:32:34;;;;;;;15.68;7.50;;;;;;;7.72;74.85;93166.38;4874047;29;20327;-93
2023/11/22 01:35:01;;;;;;;20.02;9.20;;;;;;;7.66;75.15;93159.66;4874769;29;20097;-92
2023/11/22 01:37:27;;;;;;;21.23;10.82;;;;;;;7.56;75.26;93154.66;4874206;29;20021;-88
2023/11/22 01:39:54;;;;;;;19.60;10.52;;;;;;;7.56;75.62;93150.13;4873669;29;20045;-86
2023/11/22 01:42:20;;;;;;;22.65;9.80;;;;;;;7.58;75.98;93141.88;4873053;29;20246;-87
2023/11/22 01:44:47;;;;;;;16.70;9.35;;;;;;;7.62;75.80;93132.19;4873079;29;20048;-87
2023/11/22 01:47:14;;;;;;;19.48;8.88;;;;;;;7.62;76.02;93148.09;4873110;29;20025;-87
2023/11/22 01:49:39;;;;;;;17.85;9.27;;;;;;;7.69;75.59;93137.03;4873084;29;20018;-87
2023/11/22 01:52:06;;;;;;;20.88;9.73;;;;;;;7.65;75.46;93142.16;4873069;29;20018;-87
2023/11/22 01:54:32;;;;;;;20.15;10.00;;;;;;;7.60;75.19;93140.47;4873145;29;20056;-87
2023/11/22 01:56:58;;;;;;;16.75;8.75;;;;;;;7.60;75.91;93143.09;4873060;29;20235;-87
2023/11/22 01:59:26;;;;;;;19.77;8.77;;;;;;;7.58;75.61;93139.97;4873161;29;20096;-87
2023/11/22 02:01:53;;;;;;;18.73;8.95;;;;;;;7.60;75.47;93145.75;4872965;29;20073;-86
2023/11/22 02:04:19;;;;;;;19.70;9.85;;;;;;;7.59;75.69;93140.75;4873060;29;20029;-87
2023/11/22 02:06:45;;;;;;;19.63;8.63;;;;;;;7.58;75.64;93139.97;4873078;29;20220;-87
2023/11/22 02:09:13;;;;;;;20.33;8.80;;;;;;;7.51;76.22;93134.38;4872669;29;20104;-86
2023/11/22 02:11:39;;;;;;;23.05;8.90;;;;;;;7.37;76.45;93137.16;4872112;29;20017;-86
2023/11/22 02:14:06;;;;;;;18.08;9.00;;;;;;;7.38;76.84;93132.63;4872822;29;20035;-89
2023/11/22 02:16:32;;;;;;;29.30;11.18;;;;;;;7.33;76.86;93124.84;4873153;29;20029;-86
2023/11/22 02:18:58;;;;;;;19.65;9.50;;;;;;;7.36;76.93;93119.69;4873176;29;20029;-88
2023/11/22 02:21:23;;;;;;;28.85;12.00;;;;;;;7.32;76.86;93125.94;4873078;29;20108;-88
2023/11/22 02:23:49;;;;;;;30.10;12.77;;;;;;;7.33;76.97;93130.94;4873222;29;20021;-88
2023/11/22 02:26:17;;;;;;;22.58;11.98;;;;;;;7.33;76.79;93136.22;4871583;29;20101;-88
2023/11/22 02:28:43;;;;;;;31.30;12.35;;;;;;;7.37;76.90;93142.47;4871367;29;20185;-88
2023/11/22 02:31:09;;;;;;;25.80;11.32;;;;;;;7.47;76.73;93148.53;4871242;29;20033;-87
2023/11/22 02:33:35;;;;;;;32.50;11.77;;;;;;;7.49;76.44;93138.41;4872199;29;20053;-89
2023/11/22 02:36:01;;;;;;;23.00;11.88;;;;;;;7.47;76.25;93140.59;4872957;29;20026;-89
2023/11/22 02:38:28;;;;;;;24.75;11.20;;;;;;;7.51;76.09;93142.34;4872810;29;20089;-88
2023/11/22 02:40:53;;;;;;;24.73;11.82;;;;;;;7.42;76.06;93142.31;4872777;29;20034;-89
2023/11/22 02:43:20;;;;;;;31.80;11.18;;;;;;;7.33;76.39;93130.94;4872655;29;20098;-88
2023/11/22 02:45:45;;;;;;;24.42;10.63;;;;;;;7.30;76.68;93131.53;4872854;29;20029;-89
2023/11/22 02:48:11;;;;;;;21.38;10.05;;;;;;;7.33;76.70;93130.16;4872753;29;20108;-88
2023/11/22 02:50:42;;;;;;;19.90;9.23;;;;;;;7.29;76.42;93126.56;4872770;29;20025;-88
2023/11/22 02:53:07;;;;;;;21.75;9.27;;;;;;;7.32;76.40;93134.66;4871604;29;20058;-88
2023/11/22 02:55:33;;;;;;;22.23;9.57;;;;;;;7.36;76.46;93125.00;4871262;29;20104;-88
2023/11/22 02:57:58;;;;;;;17.33;9.85;;;;;;;7.37;76.45;93126.56;4872438;29;20044;-89
2023/11/22 03:00:25;;;;;;;21.40;10.65;;;;;;;7.44;76.50;93147.31;4872402;29;20029;-89
2023/11/22 03:02:53;;;;;;;26.30;9.82;;;;;;;7.47;76.57;93133.44;4872425;29;20035;-88
2023/11/22 03:05:22;;;;;;;20.73;9.88;;;;;;;7.46;76.25;93131.88;4871541;29;20025;-89
2023/11/22 03:07:50;;;;;;;21.45;9.68;;;;;;;7.43;76.02;93138.56;4873280;29;20309;-90
2023/11/22 03:10:17;;;;;;;20.30;10.05;;;;;;;7.37;76.51;93136.41;4871879;29;20025;-87
2023/11/22 03:12:43;;;;;;;24.63;9.68;;;;;;;7.41;76.57;93143.41;4872094;29;20056;-87
2023/11/22 03:15:09;;;;;;;18.63;9.40;;;;;;;7.46;76.46;93147.78;4872021;29;20235;-87
2023/11/22 03:17:35;;;;;;;27.00;10.15;;;;;;;7.49;76.39;93144.50;4872189;29;20317;-86
2023/11/22 03:20:00;;;;;;;23.48;9.48;;;;;;;7.53;76.43;93149.97;4872919;29;20032;-91
2023/11/22 03:22:30;;;;;;;24.00;9.88;;;;;;;7.52;76.58;93146.53;4871469;29;20033;-92
2023/11/22 03:24:56;;;;;;;21.88;10.65;;;;;;;7.56;76.26;93146.69;4872461;29;20034;-91
2023/11/22 03:27:23;;;;;;;20.15;9.68;;;;;;;7.60;76.09;93145.75;4872477;29;20319;-91
2023/11/22 03:29:48;;;;;;;19.05;10.70;;;;;;;7.65;75.89;93152.78;4873352;29;20097;-89
2023/11/22 03:32:14;;;;;;;20.20;9.85;;;;;;;7.70;75.69;93151.88;4875840;29;20018;-89
2023/11/22 03:34:39;;;;;;;21.88;9.68;;;;;;;7.68;75.48;93151.41;4872114;29;20052;-87
2023/11/22 03:37:05;;;;;;;25.95;11.45;;;;;;;7.69;75.37;93137.78;4872184;29;20220;-88
2023/11/22 03:39:30;;;;;;;18.67;10.43;;;;;;;7.76;75.43;93143.44;4873313;29;20025;-87
2023/11/22 03:41:57;;;;;;;23.40;9.90;;;;;;;7.75;75.70;93144.50;4873793;29;20058;-87
2023/11/22 03:44:22;;;;;;;19.35;9.13;;;;;;;7.76;76.04;93146.09;4873037;29;20068;-87
2023/11/22 03:46:48;;;;;;;24.25;9.85;;;;;;;7.70;76.28;93139.38;4872658;29;20030;-90
2023/11/22 03:49:14;;;;;;;23.33;10.70;;;;;;;7.72;76.07;93134.53;4873649;29;20021;-90
2023/11/22 03:51:40;;;;;;;30.35;12.15;;;;;;;7.76;76.26;93127.50;4873887;29;20049;-90
2023/11/22 03:54:06;;;;;;;26.48;11.00;;;;;;;7.72;76.35;93139.84;4871433;29;20277;-90
2023/11/22 03:56:33;;;;;;;28.75;12.57;;;;;;;7.74;76.23;93134.22;4872310;29;20030;-90
2023/11/22 03:58:59;;;;;;;21.15;11.38;;;;;;;7.75;76.29;93141.84;4871954;29;20029;-90
2023/11/22 04:01:24;;;;;;;23.55;12.13;;;;;;;7.77;76.13;93133.59;4872084;29;20030;-89
2023/11/22 04:03:50;;;;;;;21.80;11.77;;;;;;;7.79;76.21;93137.47;4872379;29;20025;-89
2023/11/22 04:06:16;;;;;;;23.58;12.25;;;;;;;7.80;76.34;93144.38;4871123;29;20113;-90
2023/11/22 04:08:43;;;;;;;23.60;11.48;;;;;;;7.82;75.78;93147.47;4871995;29;20032;-91
2023/11/22 04:11:09;;;;;;;20.98;10.05;;;;;;;7.76;75.71;93151.38;4871732;29;20033;-90
2023/11/22 04:13:35;;;;;;;23.65;10.05;;;;;;;7.79;75.31;93156.06;4871417;29;20304;-90
2023/11/22 04:16:00;;;;;;;31.23;9.65;;;;;;;7.74;74.66;93161.53;4871437;29;20058;-90
2023/11/22 04:18:26;;;;;;;18.13;8.48;;;;;;;7.72;74.90;93163.72;4871911;29;20320;-95
2023/11/22 04:20:52;;;;;;;20.85;8.43;;;;;;;7.68;75.31;93164.66;4872685;29;20029;-95
2023/11/22 04:23:18;;;;;;;19.70;9.57;;;;;;;7.74;75.29;93166.84;4871953;29;20101;-95
2023/11/22 04:25:43;;;;;;;16.17;7.07;;;;;;;7.69;75.53;93180.25;4872654;29;20069;-94
2023/11/22 04:28:09;;;;;;;15.43;6.95;;;;;;;7.69;75.02;93174.94;4872447;29;20030;-95
2023/11/22 04:30:35;;;;;;;15.00;8.00;;;;;;;7.66;75.05;93174.78;4872834;29;20028;-94
2023/11/22 04:33:01;;;;;;;18.77;8.18;;;;;;;7.71;75.50;93187.88;4872911;29;20037;-86
2023/11/22 04:35:27;;;;;;;16.98;8.55;;;;;;;7.72;75.94;93190.25;4870980;29;20047;-93
2023/11/22 04:37:55;;;;;;;15.07;6.80;;;;;;;7.77;75.63;93179.47;4872251;29;20097;-94
2023/11/22 04:40:20;;;;;;;16.92;6.88;;;;;;;7.82;75.61;93184.63;4872239;29;20033;-93
2023/11/22 04:42:47;;;;;;;20.02;7.72;;;;;;;7.88;75.60;93181.84;4872365;29;20248;-94
2023/11/22 04:45:12;;;;;;;22.02;8.68;;;;;;;7.77;76.27;93176.81;4872433;29;20073;-94
2023/11/22 04:47:38;;;;;;;15.85;8.57;;;;;;;7.69;76.99;93196.16;4871229;29;20055;-94
2023/11/22 04:50:04;;;;;;;17.73;8.75;;;;;;;7.74;76.86;93197.91;4870450;29;20105;-87
2023/11/22 04:52:30;;;;;;;21.88;9.48;;;;;;;7.64;77.29;93193.66;4874179;29;20029;-93
2023/11/22 04:54:56;;;;;;;20.02;9.25;;;;;;;7.68;77.46;93215.06;4879730;29;20054;-94
2023/11/22 04:57:21;;;;;;;23.70;10.10;;;;;;;7.67;77.53;93232.03;4879674;29;20021;-93
2023/11/22 04:59:47;;;;;;;21.23;10.10;;;;;;;7.65;77.74;93229.69;4878608;29;20021;-93
2023/11/22 05:02:13;;;;;;;19.75;10.80;;;;;;;7.61;78.13;93242.00;4874894;29;20056;-93
2023/11/22 05:04:38;;;;;;;21.35;10.00;;;;;;;7.54;78.65;93249.66;4874351;29;20021;-93
2023/11/22 05:07:03;;;;;;;29.50;10.05;;;;;;;7.49;79.27;93249.78;4872829;29;20105;-89
2023/11/22 05:09:29;;;;;;;24.73;9.68;;;;;;;7.51;79.38;93252.91;4875719;29;20025;-91
2023/11/22 05:11:55;;;;;;;28.52;10.63;;;;;;;7.51;79.52;93252.91;4872566;29;20216;-92
2023/11/22 05:14:20;;;;;;;22.23;11.20;;;;;;;7.52;79.13;93247.31;4872107;29;20044;-93
2023/11/22 05:16:46;;;;;;;21.98;10.82;;;;;;;7.54;79.21;93262.91;4872139;29;20253;-93
2023/11/22 05:19:11;;;;;;;21.88;10.85;;;;;;;7.52;79.98;93255.25;4871893;29;20025;-93
2023/11/22 05:21:37;;;;;;;21.35;9.90;;;;;;;7.58;79.75;93259.31;4878916;29;20033;-93
2023/11/22 05:24:03;;;;;;;19.55;9.18;;;;;;;7.63;78.82;93261.84;4878941;29;20045;-91
2023/11/22 05:26:29;;;;;;;20.45;9.30;;;;;;;7.63;78.90;93266.34;4875778;29;20056;-92
2023/11/22 05:28:54;;;;;;;22.10;11.23;;;;;;;7.62;79.60;93275.41;4871870;29;20132;-92
2023/11/22 05:31:21;;;;;;;26.42;10.30;;;;;;;7.58;79.67;93272.59;4872039;29;20121;-90
2023/11/22 05:33:46;;;;;;;26.42;11.68;;;;;;;7.53;79.77;93287.84;4871645;29;20040;-90
2023/11/22 05:36:12;;;;;;;25.83;11.18;;;;;;;7.48;80.29;93291.44;4871299;29;20339;-90
2023/11/22 05:38:38;;;;;;;19.65;10.35;;;;;;;7.40;80.88;93285.00;4870365;29;20036;-90
2023/11/22 05:41:03;;;;;;;21.10;10.07;;;;;;;7.36;81.57;93289.34;4871255;29;20030;-90
2023/11/22 05:43:29;;;;;;;19.67;10.52;;;;;;;7.30;81.33;93287.94;4871189;29;20041;-90
2023/11/22 05:45:54;;;;;;;18.75;10.20;;;;;;;7.26;82.34;93288.84;4870247;29;20029;-90
2023/11/22 05:48:20;;;;;;;24.15;12.68;;;;;;;7.32;82.09;93287.63;4874047;29;20025;-88
2023/11/22 05:50:46;;;;;;;22.65;10.85;;;;;;;7.32;82.22;93287.63;4874216;29;20022;-88
2023/11/22 05:53:12;;;;;;;22.83;10.85;;;;;;;7.41;83.54;93299.06;4874318;29;20069;-90
2023/11/22 05:55:38;;;;;;;24.10;11.60;;;;;;;7.40;83.22;93300.91;4873747;29;20033;-89
2023/11/22 05:58:04;;;;;;;29.50;13.48;;;;;;;7.44;83.66;93301.09;4874313;29;20077;-89
2023/11/22 06:00:30;;;;;;;24.05;11.80;;;;;;;7.48;83.99;93309.22;4874040;29;20339;-90
2023/11/22 06:02:55;;;;;;;24.63;11.95;;;;;;;7.45;83.60;93321.22;4873968;29;20208;-91
2023/11/22 06:05:21;;;;;;;20.48;11.43;;;;;;;7.57;83.19;93321.44;4873782;29;20029;-91
2023/11/22 06:07:49;;;;;;;21.55;11.15;;;;;;;7.64;83.19;93318.31;4873369;29;20150;-93
2023/11/22 06:10:15;;;;;;;22.00;10.60;;;;;;;7.69;83.14;93328.00;4874167;29;20037;-91
2023/11/22 06:12:41;;;;;;;21.52;11.35;;;;;;;7.67;83.01;93323.00;4874320;29;20101;-92
2023/11/22 06:15:07;;;;;;;20.13;10.35;;;;;;;7.69;82.90;93338.63;4874580;29;20042;-94
2023/11/22 06:17:33;;;;;;;26.83;12.32;;;;;;;7.69;82.96;93339.38;4875104;29;20044;-94
2023/11/22 06:19:58;;;;;;;18.92;11.75;;;;;;;7.70;82.87;93340.97;4874146;29;20257;-87
2023/11/22 06:22:24;;;;;;;29.35;12.15;;;;;;;7.74;82.95;93352.53;4872810;29;20026;-91
2023/11/22 06:24:49;;;;;;;23.92;12.27;;;;;;;7.80;83.20;93350.53;4875054;29;20065;-92
2023/11/22 06:27:15;;;;;;;25.00;13.18;;;;;;;7.87;82.89;93350.84;4874190;29;20025;-92
2023/11/22 06:29:43;;;;;;;23.70;11.27;;;;;;;7.95;82.47;93352.75;4873801;29;20033;-93
2023/11/22 06:32:09;;;;;;;20.98;11.55;;;;;;;8.04;82.38;93358.09;4874012;29;20033;-93
2023/11/22 06:34:36;;;;;;;28.63;12.27;;;;;;;8.01;82.53;93342.75;4873018;29;20088;-83
2023/11/22 06:37:01;;;;;;;27.52;12.18;;;;;;;8.10;82.67;93348.09;4873075;29;20052;-86
2023/11/22 06:39:26;;;;;;;19.13;11.25;;;;;;;8.19;83.45;93352.31;4872149;29;20021;-86
2023/11/22 06:41:52;;;;;;;24.98;13.48;;;;;;;8.28;83.28;93359.53;4872782;29;20033;-86
2023/11/22 06:44:18;;;;;;;26.35;13.98;;;;;;;8.28;82.29;93364.84;4872795;29;20047;-89
2023/11/22 06:46:44;;;;;;;25.05;13.35;;;;;;;8.20;81.75;93369.03;4873313;29;20056;-87
2023/11/22 06:49:09;;;;;;;27.48;12.88;;;;;;;8.18;82.14;93374.66;4873026;29;20025;-86
2023/11/22 06:51:34;;;;;;;23.50;12.82;;;;;;;8.16;82.12;93374.19;4872238;29;20047;-85
2023/11/22 06:54:00;;;;;;;21.67;11.68;;;;;;;8.19;82.26;93376.22;4872411;29;20239;-86
2023/11/22 06:56:25;;;;;;;24.50;12.75;;;;;;;8.28;82.39;93388.72;4872450;29;20036;-86
2023/11/22 06:58:51;;;;;;;23.05;13.68;;;;;;;8.35;82.57;93370.47;4872399;29;20025;-85
2023/11/22 07:01:16;;;;;;;23.52;12.70;;;;;;;8.39;82.39;93382.03;4870640;29;20037;-84
2023/11/22 07:03:42;;;;;;;22.73;13.10;;;;;;;8.46;82.64;93390.34;4872030;29;20379;-81
2023/11/22 07:06:07;;;;;;;26.30;13.52;;;;;;;8.49;82.74;93381.78;4871524;29;20040;-80
2023/11/22 07:08:34;;;;;;;26.73;14.75;;;;;;;8.54;82.83;93383.50;4872003;29;20029;-82
2023/11/22 07:11:00;;;;;;;24.52;14.90;;;;;;;8.60;82.97;93372.38;4871974;29;20040;-83
2023/11/22 07:13:26;;;;;;;34.58;15.75;;;;;;;8.67;82.77;93395.06;4871991;29;20379;-83
2023/11/22 07:15:53;;;;;;;30.00;15.20;;;;;;;8.74;82.52;93390.84;4872681;29;20025;-83
2023/11/22 07:18:19;;;;;;;26.75;15.57;;;;;;;8.78;82.52;93398.97;4872099;29;20017;-74
2023/11/22 07:20:48;;;;;;;28.58;15.13;;;;;;;8.82;82.61;93402.56;4871703;29;20157;-86
2023/11/22 07:23:13;;;;;;;29.15;15.88;;;;;;;8.84;83.35;93395.06;4871504;29;20192;-77
2023/11/22 07:25:39;;;;;;;32.95;15.52;;;;;;;8.92;83.30;93391.63;4872509;29;20029;-90
2023/11/22 07:28:05;;;;;;;26.08;15.55;;;;;;;8.99;82.19;93389.25;4870778;29;20036;-82
2023/11/22 07:30:33;;;;;;;27.75;15.55;;;;;;;9.02;81.81;93391.31;4870962;29;20125;-83
2023/11/22 07:32:59;;;;;;;30.30;15.30;;;;;;;9.07;80.23;93410.84;4870400;29;20033;-83
2023/11/22 07:35:25;;;;;;;29.25;14.65;;;;;;;9.02;81.05;93407.25;4870868;29;20021;-80
2023/11/22 07:37:51;;;;;;;22.52;13.02;;;;;;;8.94;81.72;93418.69;4869727;29;20304;-82
2023/11/22 07:40:19;;;;;;;23.73;14.20;;;;;;;8.80;82.69;93407.41;4869933;29;20052;-83
2023/11/22 07:42:47;;;;;;;23.02;14.02;;;;;;;8.74;82.87;93417.41;4869684;29;20029;-82
2023/11/22 07:45:13;;;;;;;25.25;14.68;;;;;;;8.71;82.11;93407.44;4869182;29;20022;-83
2023/11/22 07:47:43;;;;;;;33.13;15.68;;;;;;;8.63;81.81;93413.50;4871355;29;20077;-83
2023/11/22 07:50:11;;;;;;;31.08;13.93;;;;;;;8.60;82.12;93414.13;4870853;29;20037;-83
2023/11/22 07:52:38;;;;;;;34.88;16.38;;;;;;;8.62;82.58;93417.25;4870875;29;20148;-83
2023/11/22 07:55:07;;;;;;;28.65;15.75;;;;;;;8.68;83.00;93425.84;4870909;29;20033;-84
2023/11/22 07:57:36;;;;;;;30.10;15.13;;;;;;;8.63;83.18;93424.91;4869856;29;20081;-83
2023/11/22 08:00:07;;;;;;;29.67;15.40;;;;;;;8.60;83.11;93422.88;4869469;29;20029;-82
2023/11/22 08:02:34;;;;;;;28.63;15.75;;;;;;;8.59;82.98;93418.66;4870623;29;20228;-78
2023/11/22 08:05:01;;;;;;;30.30;16.20;;;;;;;8.62;82.25;93415.38;4872010;29;20029;-89
2023/11/22 08:07:27;;;;;;;24.67;14.30;;;;;;;8.68;82.04;93415.22;4872620;29;20109;-90
2023/11/22 08:09:54;;;;;;;24.42;13.70;;;;;;;8.68;81.73;93420.53;4870495;29;20025;-89
2023/11/22 08:12:19;;;;;;;30.20;13.90;;;;;;;8.67;80.49;93418.97;4870549;29;20032;-90
2023/11/22 08:14:45;;;;;;;23.85;12.80;;;;;;;8.75;80.42;93419.00;4871715;29;20809;-90
2023/11/22 08:17:11;;;;;;;24.80;12.50;;;;;;;8.78;80.61;93430.88;4871777;29;20060;-90
2023/11/22 08:19:39;;;;;;;28.33;13.35;;;;;;;8.83;81.29;93433.34;4871815;29;20021;-89
2023/11/22 08:22:05;;;;;;;23.80;14.10;;;;;;;8.89;82.18;93426.78;4871622;29;20033;-90
2023/11/22 08:24:31;;;;;;;31.77;14.82;;;;;;;8.94;83.05;93426.66;4869396;29;20074;-80
2023/11/22 08:26:58;;;;;;;30.90;16.05;;;;;;;9.00;83.35;93428.06;4869477;29;20033;-81
2023/11/22 08:29:24;;;;;;;31.38;15.98;;;;;;;9.03;82.83;93435.38;4870056;29;20037;-80
2023/11/22 08:31:50;;;;;;;23.88;12.30;;;;;;;9.07;81.48;93438.22;4870962;29;20033;-90
2023/11/22 08:34:16;;;;;;;26.80;12.32;;;;;;;9.07;79.73;93443.53;4871278;29;20057;-87
2023/11/22 08:36:42;;;;;;;21.58;11.85;;;;;;;9.11;78.48;93443.69;4870967;29;20033;-87
2023/11/22 08:39:07;;;;;;;27.40;12.25;;;;;;;9.09;78.50;93445.88;4870724;29;20224;-88
2023/11/22 08:41:33;;;;;;;20.90;11.93;;;;;;;9.07;79.27;93442.75;4870945;29;20101;-87
2023/11/22 08:43:59;;;;;;;24.50;12.35;;;;;;;9.03;80.10;93437.28;4870861;29;20030;-87
2023/11/22 08:46:25;;;;;;;26.80;14.63;;;;;;;9.03;80.56;93448.69;4871062;29;20037;-87
2023/11/22 08:48:51;;;;;;;75.50;38.88;;;;;;;9.07;80.93;93440.88;4871063;29;20073;-86
2023/11/22 08:51:17;;;;;;;41.15;20.67;;;;;;;9.13;81.17;93434.31;4870854;29;20045;-87
2023/11/22 08:53:44;;;;;;;28.63;15.95;;;;;;;9.20;81.59;93439.94;4870686;29;20077;-86
2023/11/22 08:56:11;;;;;;;25.30;14.13;;;;;;;9.34;81.66;93441.63;4870851;29;20033;-86
2023/11/22 08:58:39;;;;;;;26.75;14.65;;;;;;;9.47;81.80;93445.22;4870755;29;20047;-90
2023/11/22 09:01:06;;;;;;;33.63;16.90;;;;;;;9.58;82.01;93446.44;4869756;29;20038;-86
2023/11/22 09:03:33;;;;;;;30.90;18.30;;;;;;;9.72;81.55;93444.38;4870509;29;20100;-83
2023/11/22 09:06:00;;;;;;;33.58;20.27;;;;;;;9.86;80.48;93452.19;4870586;29;20074;-86
2023/11/22 09:08:25;;;;;;;32.05;19.80;;;;;;;9.93;79.90;93451.69;4870222;29;20033;-84
2023/11/22 09:10:51;;;;;;;38.20;21.55;;;;;;;10.01;78.94;93464.19;4870092;29;20233;-84
2023/11/22 09:13:17;;;;;;;41.10;23.58;;;;;;;10.09;77.91;93474.03;4870164;29;20029;-80
2023/11/22 09:15:44;;;;;;;36.05;19.60;;;;;;;10.11;77.20;93468.38;4869743;29;20071;-83
2023/11/22 09:18:10;;;;;;;27.77;14.63;;;;;;;10.14;77.67;93481.84;4869909;29;20038;-83
2023/11/22 09:20:36;;;;;;;54.47;17.30;;;;;;;10.08;77.96;93477.78;4871173;29;20044;-84
2023/11/22 09:23:01;;;;;;;31.30;15.50;;;;;;;10.04;77.58;93474.97;4873480;29;20029;-74
2023/11/22 09:25:28;;;;;;;26.77;16.17;;;;;;;9.97;77.96;93473.91;4872829;29;20029;-77
2023/11/22 09:27:56;;;;;;;33.50;15.98;;;;;;;9.87;79.26;93480.38;4871723;29;20044;-76
2023/11/22 09:30:35;;;;;;;26.27;15.70;;;;;;;9.74;79.74;93491.97;4873093;29;20032;-75
2023/11/22 09:33:06;;;;;;;28.52;16.15;;;;;;;9.65;80.54;93478.69;4872861;29;20029;-77
2023/11/22 09:35:31;;;;;;;26.67;14.23;;;;;;;9.51;80.83;93478.88;4872874;29;20342;-77
2023/11/22 09:38:01;;;;;;;36.88;15.70;;;;;;;9.44;81.71;93479.34;4872734;29;20021;-76
2023/11/22 09:40:28;;;;;;;25.20;13.27;;;;;;;9.55;81.75;93484.34;4872402;29;20097;-75
2023/11/22 09:42:55;;;;;;;25.48;13.52;;;;;;;9.54;81.99;93483.53;4872947;29;20025;-75
2023/11/22 09:45:21;;;;;;;35.15;14.55;;;;;;;9.54;82.09;93488.09;4872701;29;20033;-75
2023/11/22 09:47:47;;;;;;;33.00;14.98;;;;;;;9.56;82.29;93492.00;4872527;29;20048;-77
2023/11/22 09:50:40;;;;;;;28.95;14.65;;;;;;;9.64;81.10;93483.22;4872636;29;20366;-76
2023/11/22 09:53:10;;;;;;;;;;;;;;;9.63;81.24;93496.84;4871563;29;20301;-79
2023/11/22 09:55:37;;;;;;;35.88;15.48;;;;;;;9.54;81.45;93488.09;4872818;29;19908;-81
2023/11/22 09:58:04;;;;;;;35.42;16.13;;;;;;;9.52;82.03;93480.41;4871564;29;20021;-84
2023/11/22 10:00:30;;;;;;;32.50;16.92;;;;;;;9.58;82.51;93467.72;4872306;29;20084;-79
2023/11/22 10:02:57;;;;;;;29.95;16.63;;;;;;;9.64;81.69;93469.13;4871170;29;20078;-81
2023/11/22 10:05:23;;;;;;;31.55;16.85;;;;;;;9.55;81.52;93471.81;4872470;29;20021;-86
2023/11/22 10:07:49;;;;;;;31.23;17.55;;;;;;;9.64;81.91;93469.13;4871684;29;20025;-80
2023/11/22 10:10:15;;;;;;;34.40;18.55;;;;;;;9.74;82.31;93474.13;4873132;29;20108;-82
2023/11/22 10:12:43;;;;;;;40.40;21.23;;;;;;;9.61;82.45;93467.91;4872551;29;20097;-80
2023/11/22 10:15:18;;;;;;;38.53;19.65;;;;;;;9.72;82.77;93465.66;4871428;29;20026;-83
2023/11/22 10:17:58;;;;;;;38.40;22.15;;;;;;;9.86;83.04;93468.16;4872404;29;20028;-89
2023/11/22 10:20:26;;;;;;;52.78;24.33;;;;;;;9.97;82.45;93474.72;4873016;29;20041;-82
2023/11/22 10:22:51;;;;;;;47.78;23.65;;;;;;;10.15;82.42;93478.06;4872190;29;20029;-78
2023/11/22 10:25:18;;;;;;;40.83;20.30;;;;;;;10.27;81.94;93472.06;4872169;29;20292;-78
2023/11/22 10:27:47;;;;;;;36.47;19.17;;;;;;;10.43;81.37;93467.81;4871665;29;20180;-77
2023/11/22 10:30:13;;;;;;;38.58;19.92;;;;;;;10.56;80.61;93471.34;4871873;29;20246;-77
2023/11/22 10:32:38;;;;;;;34.72;17.98;;;;;;;10.70;79.75;93473.00;4870898;29;20045;-77
2023/11/22 10:35:09;;;;;;;38.75;16.98;;;;;;;10.85;78.53;93469.78;4871852;29;20041;-78
2023/11/22 10:37:35;;;;;;;27.55;16.52;;;;;;;10.95;77.24;93468.59;4871879;29;20032;-78
2023/11/22 10:40:02;;;;;;;42.20;16.63;;;;;;;10.99;77.22;93470.31;4871505;29;20025;-78
2023/11/22 10:42:29;;;;;;;30.77;16.73;;;;;;;11.14;77.08;93478.84;4871341;29;20035;-78
2023/11/22 10:44:59;;;;;;;32.50;16.77;;;;;;;11.22;76.62;93480.66;4871566;29;20021;-78
2023/11/22 10:47:29;;;;;;;34.42;17.95;;;;;;;11.38;75.92;93486.97;4871358;29;20025;-78
2023/11/22 10:49:55;;;;;;;30.23;16.08;;;;;;;11.43;74.81;93483.31;4871240;29;20033;-78
2023/11/22 10:52:27;;;;;;;29.65;15.27;;;;;;;11.49;74.50;93478.56;4871386;29;20390;-78
2023/11/22 10:54:59;;;;;;;27.43;14.63;;;;;;;11.57;73.70;93473.13;4871727;29;20041;-78
2023/11/22 10:57:27;;;;;;;26.00;13.55;;;;;;;11.59;73.53;93472.81;4871283;29;20459;-78
2023/11/22 10:59:55;;;;;;;22.48;11.65;;;;;;;11.63;72.90;93468.38;4871089;29;20033;-78
2023/11/22 11:02:23;;;;;;;24.83;12.95;;;;;;;11.67;72.15;93474.63;4871155;29;20180;-78
2023/11/22 11:05:03;;;;;;;27.65;13.88;;;;;;;11.71;71.88;93462.16;4871206;29;20029;-79
2023/11/22 11:07:32;;;;;;;30.27;13.20;;;;;;;11.76;71.54;93467.28;4871317;29;20201;-74
2023/11/22 11:10:00;;;;;;;27.25;14.95;;;;;;;11.76;72.13;93474.53;4871082;29;20033;-77
2023/11/22 11:12:26;;;;;;;25.73;15.38;;;;;;;11.65;72.84;93476.84;4869417;29;20305;-77
2023/11/22 11:14:51;;;;;;;30.48;16.55;;;;;;;11.56;73.47;93492.94;4869733;29;20090;-76
2023/11/22 11:17:17;;;;;;;26.73;15.45;;;;;;;11.57;73.55;93485.69;4870973;29;20328;-77
2023/11/22 11:19:42;;;;;;;24.00;14.38;;;;;;;11.57;73.91;93488.38;4871002;29;20081;-77
2023/11/22 11:22:13;;;;;;;27.08;13.60;;;;;;;11.61;73.41;93462.59;4870752;29;20281;-77